Aviation Digital Data Service (ADDS)

Output produced by METARs form (2121 UTC 31 October 2014)
found at http://aviationweather.gov/adds/metars/
 
KBGR 311740Z 3118/0118 00000KT P6SM BKN100 
     FM011400 03010G20KT P6SM OVC025